createdAt,value
2018-07-13T00:01:59.108Z,16.20
2018-07-13T00:04:27.549Z,16.10
2018-07-13T00:06:56.023Z,16.10
2018-07-13T00:09:24.490Z,16.00
2018-07-13T00:11:53.002Z,15.90
2018-07-13T00:14:22.472Z,15.80
2018-07-13T00:16:53.062Z,15.70
2018-07-13T00:19:22.463Z,15.60
2018-07-13T00:21:50.969Z,15.60
2018-07-13T00:24:19.406Z,15.50
2018-07-13T00:26:47.866Z,15.50
2018-07-13T00:29:16.443Z,15.50
2018-07-13T00:31:45.275Z,15.60
2018-07-13T00:34:14.115Z,15.50
2018-07-13T00:36:42.910Z,15.40
2018-07-13T00:39:12.955Z,15.40
2018-07-13T00:41:42.111Z,15.40
2018-07-13T00:44:10.789Z,15.40
2018-07-13T00:46:39.229Z,15.30
2018-07-13T00:49:07.679Z,15.40
2018-07-13T00:51:36.144Z,15.40
2018-07-13T00:54:04.598Z,15.40
2018-07-13T00:56:32.999Z,15.40
2018-07-13T00:59:01.464Z,15.30
2018-07-13T01:01:29.891Z,15.30
2018-07-13T01:03:58.324Z,15.10
2018-07-13T01:06:26.769Z,15.20
2018-07-13T01:08:55.611Z,15.10
2018-07-13T01:11:24.213Z,15.10
2018-07-13T01:13:52.731Z,15.00
2018-07-13T01:16:21.211Z,14.90
2018-07-13T01:18:49.655Z,14.80
2018-07-13T01:21:18.470Z,14.70
2018-07-13T01:23:46.876Z,14.70
2018-07-13T01:26:15.356Z,14.70
2018-07-13T01:28:43.812Z,14.70
2018-07-13T01:31:12.246Z,14.70
2018-07-13T01:33:40.692Z,14.60
2018-07-13T01:36:09.174Z,14.50
2018-07-13T01:38:37.629Z,14.50
2018-07-13T01:41:06.079Z,14.60
2018-07-13T01:43:34.534Z,14.50
2018-07-13T01:46:02.998Z,14.50
2018-07-13T01:48:31.424Z,14.40
2018-07-13T01:50:59.868Z,14.30
2018-07-13T01:53:28.272Z,14.40
2018-07-13T01:55:56.707Z,14.50
2018-07-13T01:58:25.202Z,14.40
2018-07-13T02:00:53.638Z,14.40
2018-07-13T02:03:22.071Z,14.40
2018-07-13T02:05:50.491Z,14.40
2018-07-13T02:08:18.975Z,14.40
2018-07-13T02:10:47.416Z,14.40
2018-07-13T02:13:15.893Z,14.40
2018-07-13T02:15:44.525Z,14.40
2018-07-13T02:18:13.019Z,14.30
2018-07-13T02:20:41.651Z,14.20
2018-07-13T02:23:10.102Z,14.10
2018-07-13T02:25:38.535Z,14.10
2018-07-13T02:28:06.977Z,14.00
2018-07-13T02:30:35.397Z,14.10
2018-07-13T02:33:04.214Z,14.10
2018-07-13T02:35:32.680Z,14.10
2018-07-13T02:38:01.121Z,14.10
2018-07-13T02:40:29.540Z,14.10
2018-07-13T02:42:57.998Z,14.10
2018-07-13T02:45:26.447Z,14.10
2018-07-13T02:47:54.882Z,14.00
2018-07-13T02:50:23.287Z,14.00
2018-07-13T02:52:52.116Z,13.90
2018-07-13T02:55:20.591Z,13.80
2018-07-13T02:57:49.071Z,13.90
2018-07-13T03:00:17.521Z,13.90
2018-07-13T03:02:45.964Z,13.80
2018-07-13T03:05:14.420Z,13.70
2018-07-13T03:07:43.275Z,13.70
2018-07-13T03:10:11.743Z,13.70
2018-07-13T03:12:40.159Z,13.70
2018-07-13T03:15:08.624Z,13.70
2018-07-13T03:17:37.064Z,13.70
2018-07-13T03:20:05.525Z,13.60
2018-07-13T03:22:33.965Z,13.60
2018-07-13T03:25:02.408Z,13.60
2018-07-13T03:27:30.887Z,13.60
2018-07-13T03:29:59.322Z,13.60
2018-07-13T03:32:27.801Z,13.50
2018-07-13T03:34:56.225Z,13.50
2018-07-13T03:37:24.687Z,13.50
2018-07-13T03:39:53.137Z,13.40
2018-07-13T03:42:21.587Z,13.30
2018-07-13T03:44:50.007Z,13.30
2018-07-13T03:47:18.426Z,13.30
2018-07-13T03:49:46.852Z,13.40
2018-07-13T03:52:15.290Z,13.40
2018-07-13T03:54:43.733Z,13.40
2018-07-13T03:57:12.201Z,13.40
2018-07-13T03:59:40.652Z,13.30
2018-07-13T04:02:09.081Z,13.40
2018-07-13T04:04:37.934Z,13.40
2018-07-13T04:07:06.517Z,13.40
2018-07-13T04:09:35.074Z,13.30
2018-07-13T04:12:03.860Z,13.40
2018-07-13T04:14:32.306Z,13.40
2018-07-13T04:17:00.918Z,13.40
2018-07-13T04:19:29.699Z,13.40
2018-07-13T04:21:58.229Z,13.50
2018-07-13T04:24:26.707Z,13.60
2018-07-13T04:26:55.227Z,13.70
2018-07-13T04:29:23.691Z,13.80
2018-07-13T04:31:52.186Z,13.90
2018-07-13T04:34:20.676Z,14.00
2018-07-13T04:36:49.340Z,14.00
2018-07-13T04:39:17.805Z,14.00
2018-07-13T04:41:46.244Z,14.00
2018-07-13T04:44:14.854Z,14.10
2018-07-13T04:46:43.360Z,14.20
2018-07-13T04:49:12.039Z,14.40
2018-07-13T04:51:40.579Z,14.50
2018-07-13T04:54:09.103Z,14.70
2018-07-13T04:56:37.657Z,14.80
2018-07-13T04:59:06.182Z,14.90
2018-07-13T05:01:34.747Z,15.10
2018-07-13T05:04:03.281Z,15.20
2018-07-13T05:06:31.803Z,15.30
2018-07-13T05:09:00.355Z,15.40
2018-07-13T05:11:28.866Z,15.70
2018-07-13T05:13:57.332Z,15.90
2018-07-13T05:16:25.802Z,16.00
2018-07-13T05:18:54.252Z,16.30
2018-07-13T05:21:22.811Z,16.50
2018-07-13T05:23:51.488Z,16.80
2018-07-13T05:26:20.036Z,17.20
2018-07-13T05:28:48.539Z,17.50
2018-07-13T05:31:17.251Z,17.80
2018-07-13T05:33:45.787Z,18.00
2018-07-13T05:36:14.355Z,18.00
2018-07-13T05:38:42.966Z,18.40
2018-07-13T05:41:12.016Z,18.70
2018-07-13T05:43:40.541Z,18.80
2018-07-13T05:46:09.100Z,19.00
2018-07-13T05:48:38.490Z,18.90
2018-07-13T05:51:07.345Z,18.80
2018-07-13T05:53:36.109Z,19.10
2018-07-13T05:56:04.679Z,18.60
2018-07-13T05:58:33.263Z,18.50
2018-07-13T06:01:01.773Z,18.80
2018-07-13T06:03:30.348Z,19.00
2018-07-13T06:05:58.977Z,19.10
2018-07-13T06:08:28.336Z,19.30
2018-07-13T06:10:57.106Z,19.90
2018-07-13T06:13:25.596Z,19.40
2018-07-13T06:15:54.435Z,19.20
2018-07-13T06:18:23.012Z,19.30
2018-07-13T06:20:51.506Z,18.40
2018-07-13T06:23:20.042Z,18.70
2018-07-13T06:28:16.672Z,19.70
2018-07-13T06:30:45.137Z,19.30
2018-07-13T06:33:14.006Z,19.90
2018-07-13T06:35:42.445Z,20.10
2018-07-13T06:38:10.949Z,20.20
2018-07-13T06:40:39.576Z,20.30
2018-07-13T06:43:08.119Z,20.80
2018-07-13T06:45:37.743Z,21.40
2018-07-13T06:48:06.339Z,21.40
2018-07-13T06:50:34.967Z,21.00
2018-07-13T06:53:03.579Z,20.60
2018-07-13T06:55:32.406Z,20.50
2018-07-13T06:58:11.976Z,20.80
2018-07-13T07:00:59.195Z,20.90
2018-07-13T07:03:29.049Z,20.40
2018-07-13T07:06:02.275Z,20.70
2018-07-13T07:08:32.863Z,20.50
2018-07-13T07:11:01.374Z,20.50
2018-07-13T07:13:34.841Z,21.00
2018-07-13T07:16:03.291Z,21.60
2018-07-13T07:18:31.738Z,22.00
2018-07-13T07:21:00.226Z,21.60
2018-07-13T07:23:29.426Z,21.40
2018-07-13T07:25:58.850Z,21.90
2018-07-13T07:28:27.765Z,22.00
2018-07-13T07:30:56.926Z,22.10
2018-07-13T07:33:25.374Z,21.30
2018-07-13T07:35:53.914Z,21.00
2018-07-13T07:38:22.792Z,21.50
2018-07-13T07:40:51.543Z,22.50
2018-07-13T07:43:20.572Z,22.70
2018-07-13T07:45:49.208Z,23.00
2018-07-13T07:48:17.661Z,22.60
2018-07-13T07:50:46.122Z,21.70
2018-07-13T07:53:14.623Z,21.90
2018-07-13T07:55:43.428Z,22.00
2018-07-13T07:58:11.908Z,22.30
2018-07-13T08:00:40.357Z,23.00
2018-07-13T08:03:08.807Z,23.40
2018-07-13T08:05:37.238Z,22.60
2018-07-13T08:08:05.797Z,23.10
2018-07-13T08:10:34.306Z,21.90
2018-07-13T08:13:02.808Z,22.00
2018-07-13T08:15:31.332Z,21.70
2018-07-13T08:17:59.782Z,21.70
2018-07-13T08:20:33.221Z,22.10
2018-07-13T08:23:03.275Z,22.50
2018-07-13T08:25:31.874Z,21.60
2018-07-13T08:28:01.441Z,22.20
2018-07-13T08:31:06.222Z,22.80
2018-07-13T08:33:34.839Z,23.10
2018-07-13T08:36:03.410Z,23.30
2018-07-13T08:38:32.218Z,24.20
2018-07-13T08:41:00.715Z,23.90
2018-07-13T08:43:29.469Z,24.40
2018-07-13T08:45:58.248Z,23.90
2018-07-13T08:48:26.917Z,23.20
2018-07-13T08:50:55.436Z,22.20
2018-07-13T08:53:24.324Z,22.10
2018-07-13T08:55:52.850Z,22.60
2018-07-13T08:58:21.406Z,22.80
2018-07-13T09:00:49.931Z,23.50
2018-07-13T09:03:18.421Z,23.70
2018-07-13T09:05:47.286Z,24.30
2018-07-13T09:08:16.244Z,24.80
2018-07-13T09:10:45.512Z,24.60
2018-07-13T09:13:14.114Z,23.80
2018-07-13T09:15:42.608Z,24.10
2018-07-13T09:18:11.430Z,24.50
2018-07-13T09:20:40.103Z,24.00
2018-07-13T09:23:08.603Z,24.70
2018-07-13T09:25:37.407Z,24.70
2018-07-13T09:28:06.132Z,24.10
2018-07-13T09:30:34.985Z,24.50
2018-07-13T09:33:03.431Z,23.50
2018-07-13T09:35:31.881Z,23.80
2018-07-13T09:38:00.438Z,24.90
2018-07-13T09:40:29.145Z,25.60
2018-07-13T09:42:59.194Z,25.50
2018-07-13T09:45:27.801Z,24.30
2018-07-13T09:47:56.309Z,24.20
2018-07-13T09:50:24.768Z,25.00
2018-07-13T09:52:53.293Z,25.20
2018-07-13T09:55:21.749Z,25.90
2018-07-13T09:57:50.215Z,26.80
2018-07-13T10:00:18.676Z,26.80
2018-07-13T10:02:47.160Z,26.30
2018-07-13T10:05:15.678Z,26.10
2018-07-13T10:07:44.216Z,25.30
2018-07-13T10:10:12.786Z,24.50
2018-07-13T10:12:41.287Z,24.30
2018-07-13T10:15:09.751Z,24.50
2018-07-13T10:17:38.575Z,24.80
2018-07-13T10:20:07.092Z,25.80
2018-07-13T10:22:35.725Z,27.20
2018-07-13T10:25:04.759Z,27.20
2018-07-13T10:27:34.979Z,26.10
2018-07-13T10:30:04.315Z,26.70
2018-07-13T10:32:33.094Z,27.80
2018-07-13T10:35:03.019Z,26.60
2018-07-13T10:37:31.544Z,25.50
2018-07-13T10:40:00.031Z,25.60
2018-07-13T10:42:28.700Z,25.80
2018-07-13T10:44:57.129Z,25.60
2018-07-13T10:47:26.289Z,26.30
2018-07-13T10:49:54.769Z,26.90
2018-07-13T10:52:23.204Z,27.50
2018-07-13T10:54:51.768Z,28.10
2018-07-13T10:57:20.218Z,28.80
2018-07-13T10:59:48.673Z,29.80
2018-07-13T11:02:17.152Z,29.70
2018-07-13T11:04:45.949Z,28.90
2018-07-13T11:07:14.369Z,28.70
2018-07-13T11:09:42.827Z,28.50
2018-07-13T11:12:11.323Z,27.30
2018-07-13T11:14:39.775Z,27.10
2018-07-13T11:17:08.252Z,26.00
2018-07-13T11:19:36.692Z,26.00
2018-07-13T11:22:05.135Z,26.00
2018-07-13T11:24:33.560Z,26.30
2018-07-13T11:27:02.005Z,27.10
2018-07-13T11:29:30.618Z,28.00
2018-07-13T11:31:59.108Z,27.50
2018-07-13T11:34:27.594Z,27.20
2018-07-13T11:36:56.108Z,27.10
2018-07-13T11:39:24.659Z,27.50
2018-07-13T11:41:53.123Z,27.20
2018-07-13T11:44:21.752Z,26.40
2018-07-13T11:46:50.223Z,26.60
2018-07-13T11:49:18.672Z,27.70
2018-07-13T11:51:47.101Z,27.00
2018-07-13T11:54:15.615Z,27.00
2018-07-13T11:56:44.046Z,28.10
2018-07-13T11:59:12.496Z,29.00
2018-07-13T12:01:40.935Z,28.30
2018-07-13T12:04:09.380Z,27.40
2018-07-13T12:06:39.120Z,27.00
2018-07-13T12:09:08.206Z,27.20
2018-07-13T12:11:36.634Z,27.40
2018-07-13T12:14:05.429Z,28.00
2018-07-13T12:16:33.900Z,28.50
2018-07-13T12:19:02.485Z,28.20
2018-07-13T12:21:30.958Z,27.40
2018-07-13T12:23:59.414Z,26.80
2018-07-13T12:26:27.857Z,26.90
2018-07-13T12:28:56.291Z,27.60
2018-07-13T12:31:24.756Z,27.90
2018-07-13T12:33:53.175Z,27.70
2018-07-13T12:36:21.630Z,28.00
2018-07-13T12:38:50.389Z,29.00
2018-07-13T12:41:18.860Z,29.70
2018-07-13T12:43:47.274Z,29.80
2018-07-13T12:46:15.723Z,27.80
2018-07-13T12:48:44.205Z,27.30
2018-07-13T12:51:12.623Z,27.70
2018-07-13T12:53:41.162Z,28.30
2018-07-13T12:56:09.604Z,28.40
2018-07-13T12:58:38.155Z,28.90
2018-07-13T13:01:06.560Z,27.80
2018-07-13T13:03:35.201Z,27.30
2018-07-13T13:06:03.833Z,28.00
2018-07-13T13:08:32.568Z,27.80
2018-07-13T13:11:01.218Z,28.10
2018-07-13T13:13:30.212Z,28.70
2018-07-13T13:15:58.675Z,28.50
2018-07-13T13:18:27.118Z,27.40
2018-07-13T13:20:55.588Z,26.90
2018-07-13T13:23:24.040Z,27.30
2018-07-13T13:25:52.515Z,27.60
2018-07-13T13:28:20.953Z,28.20
2018-07-13T13:30:49.430Z,28.70
2018-07-13T13:33:17.926Z,27.30
2018-07-13T13:35:46.431Z,27.50
2018-07-13T13:38:14.875Z,28.00
2018-07-13T13:40:43.337Z,29.10
2018-07-13T13:43:11.799Z,29.40
2018-07-13T13:45:40.260Z,28.40
2018-07-13T13:48:08.701Z,28.00
2018-07-13T13:50:37.193Z,27.80
2018-07-13T13:53:05.969Z,27.40
2018-07-13T13:55:34.756Z,27.20
2018-07-13T13:58:03.581Z,27.10
2018-07-13T14:00:32.360Z,27.10
2018-07-13T14:03:02.858Z,27.10
2018-07-13T14:05:31.430Z,26.90
2018-07-13T14:08:00.945Z,26.90
2018-07-13T14:10:29.453Z,27.20
2018-07-13T14:12:57.873Z,27.60
2018-07-13T14:15:26.666Z,27.30
2018-07-13T14:17:55.506Z,27.10
2018-07-13T14:20:24.024Z,27.30
2018-07-13T14:22:52.629Z,27.60
2018-07-13T14:25:21.082Z,27.90
2018-07-13T14:27:49.514Z,27.20
2018-07-13T14:30:18.323Z,26.00
2018-07-13T14:32:46.760Z,26.40
2018-07-13T14:35:15.178Z,26.60
2018-07-13T14:37:43.733Z,26.40
2018-07-13T14:40:12.246Z,26.50
2018-07-13T14:42:40.857Z,26.90
2018-07-13T14:45:09.300Z,27.10
2018-07-13T14:47:38.033Z,27.20
2018-07-13T14:50:06.889Z,26.90
2018-07-13T14:52:36.751Z,26.50
2018-07-13T14:55:06.008Z,26.30
2018-07-13T14:57:34.782Z,26.50
2018-07-13T15:00:03.326Z,26.50
2018-07-13T15:02:31.996Z,26.60
2018-07-13T15:05:00.515Z,26.40
2018-07-13T15:07:29.121Z,26.90
2018-07-13T15:09:57.615Z,27.20
2018-07-13T15:12:26.071Z,27.10
2018-07-13T15:14:54.875Z,27.10
2018-07-13T15:17:23.288Z,27.20
2018-07-13T15:19:51.923Z,27.10
2018-07-13T15:22:20.359Z,27.20
2018-07-13T15:24:48.808Z,27.20
2018-07-13T15:27:17.293Z,26.90
2018-07-13T15:29:45.907Z,26.50
2018-07-13T15:32:14.378Z,26.20
2018-07-13T15:34:43.103Z,26.10
2018-07-13T15:37:11.567Z,26.50
2018-07-13T15:39:40.000Z,26.80
2018-07-13T15:42:09.080Z,26.70
2018-07-13T15:44:37.522Z,27.00
2018-07-13T15:47:05.999Z,27.00
2018-07-13T15:52:02.580Z,26.70
2018-07-13T15:54:31.027Z,26.50
2018-07-13T15:56:59.482Z,26.50
2018-07-13T15:59:27.919Z,26.50
2018-07-13T16:01:56.335Z,26.60
2018-07-13T16:04:25.201Z,26.90
2018-07-13T16:06:53.637Z,27.40
2018-07-13T16:09:22.190Z,27.00
2018-07-13T16:11:50.638Z,27.90
2018-07-13T16:14:19.102Z,26.80
2018-07-13T16:16:47.748Z,26.60
2018-07-13T16:19:16.172Z,26.70
2018-07-13T16:21:44.626Z,26.70
2018-07-13T16:24:13.132Z,26.50
2018-07-13T16:26:41.583Z,26.40
2018-07-13T16:29:10.399Z,26.50
2018-07-13T16:31:38.858Z,26.80
2018-07-13T16:34:07.339Z,26.80
2018-07-13T16:36:35.950Z,26.70
2018-07-13T16:39:05.080Z,26.70
2018-07-13T16:41:33.543Z,26.90
2018-07-13T16:44:01.960Z,26.80
2018-07-13T16:46:30.423Z,26.60
2018-07-13T16:48:58.899Z,26.40
2018-07-13T16:51:27.367Z,26.40
2018-07-13T16:53:55.927Z,26.40
2018-07-13T16:56:24.503Z,26.10
2018-07-13T16:58:53.057Z,25.90
2018-07-13T17:01:21.568Z,25.80
2018-07-13T17:03:50.034Z,26.20
2018-07-13T17:06:18.488Z,26.30
2018-07-13T17:08:47.112Z,26.10
2018-07-13T17:11:15.857Z,26.60
2018-07-13T17:13:44.320Z,26.60
2018-07-13T17:16:12.768Z,26.60
2018-07-13T17:18:41.202Z,26.30
2018-07-13T17:21:09.632Z,26.30
2018-07-13T17:23:38.127Z,26.20
2018-07-13T17:26:07.051Z,25.90
2018-07-13T17:28:35.858Z,25.90
2018-07-13T17:31:04.332Z,25.50
2018-07-13T17:33:32.861Z,25.80
2018-07-13T17:36:01.351Z,25.70
2018-07-13T17:38:29.861Z,25.60
2018-07-13T17:40:58.311Z,25.60
2018-07-13T17:43:26.775Z,25.70
2018-07-13T17:45:55.269Z,25.60
2018-07-13T17:48:23.740Z,25.50
2018-07-13T17:50:52.159Z,25.50
2018-07-13T17:53:20.657Z,25.70
2018-07-13T17:55:49.476Z,25.40
2018-07-13T17:58:17.924Z,25.30
2018-07-13T18:00:46.466Z,25.60
2018-07-13T18:03:15.079Z,25.20
2018-07-13T18:05:43.588Z,25.10
2018-07-13T18:08:12.447Z,25.20
2018-07-13T18:10:40.938Z,25.00
2018-07-13T18:13:09.403Z,25.10
2018-07-13T18:15:40.478Z,24.90
2018-07-13T18:18:09.036Z,25.00
2018-07-13T18:20:37.529Z,25.00
2018-07-13T18:23:06.586Z,24.80
2018-07-13T18:25:35.316Z,24.80
2018-07-13T18:28:03.796Z,24.90
2018-07-13T18:30:32.426Z,24.70
2018-07-13T18:33:00.915Z,24.50
2018-07-13T18:35:29.379Z,24.70
2018-07-13T18:37:57.819Z,24.60
2018-07-13T18:40:26.315Z,24.40
2018-07-13T18:42:54.809Z,24.10
2018-07-13T18:45:23.233Z,24.50
2018-07-13T18:47:52.092Z,24.40
2018-07-13T18:50:20.551Z,24.50
2018-07-13T18:52:49.012Z,24.30
2018-07-13T18:55:17.851Z,24.20
2018-07-13T18:57:46.260Z,24.30
2018-07-13T19:00:14.753Z,24.10
2018-07-13T19:02:43.765Z,23.80
2018-07-13T19:05:12.262Z,24.10
2018-07-13T19:07:40.770Z,24.10
2018-07-13T19:10:09.219Z,23.90
2018-07-13T19:12:37.709Z,23.90
2018-07-13T19:15:06.360Z,24.00
2018-07-13T19:17:34.839Z,23.90
2018-07-13T19:20:03.399Z,23.80
2018-07-13T19:22:32.702Z,23.90
2018-07-13T19:25:01.494Z,23.80
2018-07-13T19:27:30.163Z,23.90
2018-07-13T19:29:58.652Z,23.70
2018-07-13T19:32:27.098Z,23.60
2018-07-13T19:34:55.585Z,23.70
2018-07-13T19:37:24.018Z,23.40
2018-07-13T19:39:52.633Z,23.40
2018-07-13T19:42:21.225Z,23.40
2018-07-13T19:44:49.812Z,23.20
2018-07-13T19:47:18.256Z,23.20
2018-07-13T19:49:46.787Z,23.00
2018-07-13T19:52:15.191Z,22.90
2018-07-13T19:54:43.641Z,22.90
2018-07-13T19:57:12.191Z,22.90
2018-07-13T19:59:40.844Z,22.80
2018-07-13T20:02:09.275Z,22.80
2018-07-13T20:04:37.890Z,22.70
2018-07-13T20:07:06.791Z,22.80
2018-07-13T20:09:35.695Z,22.80
2018-07-13T20:12:04.162Z,22.60
2018-07-13T20:14:32.634Z,22.60
2018-07-13T20:17:01.231Z,22.40
2018-07-13T20:19:30.088Z,22.30
2018-07-13T20:21:58.538Z,22.30
2018-07-13T20:24:26.987Z,22.10
2018-07-13T20:26:55.452Z,22.00
2018-07-13T20:29:24.209Z,22.10
2018-07-13T20:31:52.674Z,22.10
2018-07-13T20:34:21.103Z,21.90
2018-07-13T20:36:51.262Z,22.10
2018-07-13T20:39:19.754Z,21.90
2018-07-13T20:41:48.403Z,21.80
2018-07-13T20:46:45.861Z,21.50
2018-07-13T20:49:15.176Z,21.60
2018-07-13T20:51:43.724Z,21.50
2018-07-13T20:54:12.169Z,21.50
2018-07-13T20:56:40.814Z,21.50
2018-07-13T20:59:09.306Z,21.50
2018-07-13T21:01:37.890Z,21.50
2018-07-13T21:04:06.406Z,21.70
2018-07-13T21:06:34.904Z,21.70
2018-07-13T21:09:03.735Z,21.80
2018-07-13T21:11:32.204Z,21.70
2018-07-13T21:14:00.700Z,21.70
2018-07-13T21:16:29.134Z,21.70
2018-07-13T21:18:57.563Z,21.60
2018-07-13T21:21:26.005Z,21.70
2018-07-13T21:23:54.483Z,21.70
2018-07-13T21:26:22.933Z,21.60
2018-07-13T21:28:51.363Z,21.60
2018-07-13T21:31:19.976Z,21.70
2018-07-13T21:33:48.427Z,21.60
2018-07-13T21:36:16.906Z,21.60
2018-07-13T21:38:45.356Z,21.40
2018-07-13T21:41:14.196Z,21.20
2018-07-13T21:43:42.618Z,21.00
2018-07-13T21:46:13.997Z,20.90
2018-07-13T21:48:45.432Z,20.90
2018-07-13T21:51:14.040Z,20.90
2018-07-13T21:53:42.534Z,20.80
2018-07-13T21:56:10.970Z,20.80
2018-07-13T21:58:39.434Z,20.80
2018-07-13T22:01:07.988Z,20.80
2018-07-13T22:03:36.428Z,20.80
2018-07-13T22:06:05.819Z,20.80
2018-07-13T22:08:34.313Z,20.70
2018-07-13T22:11:02.767Z,20.60
2018-07-13T22:13:31.247Z,20.50
2018-07-13T22:15:59.793Z,20.40
2018-07-13T22:18:28.355Z,20.40
2018-07-13T22:20:56.951Z,20.40
2018-07-13T22:23:25.415Z,20.30
2018-07-13T22:25:53.840Z,20.30
2018-07-13T22:28:22.307Z,20.20
2018-07-13T22:30:50.785Z,20.10
2018-07-13T22:33:19.251Z,20.00
2018-07-13T22:35:47.685Z,20.00
2018-07-13T22:38:16.128Z,20.00
2018-07-13T22:40:44.567Z,19.90
2018-07-13T22:43:13.216Z,19.90
2018-07-13T22:45:41.675Z,19.80
2018-07-13T22:48:10.107Z,19.80
2018-07-13T22:50:38.588Z,19.90
2018-07-13T22:53:07.411Z,19.80
2018-07-13T22:55:35.877Z,19.80
2018-07-13T22:58:04.416Z,19.80
2018-07-13T23:03:24.020Z,19.70
2018-07-13T23:05:52.539Z,19.70
2018-07-13T23:08:21.039Z,19.70
2018-07-13T23:11:00.000Z,19.60
2018-07-13T23:13:32.164Z,19.50
2018-07-13T23:16:00.655Z,18.80
2018-07-13T23:18:29.272Z,19.40
2018-07-13T23:20:58.074Z,19.20
2018-07-13T23:23:26.742Z,19.20
2018-07-13T23:26:00.479Z,19.20
2018-07-13T23:28:31.243Z,19.10
2018-07-13T23:31:00.087Z,19.10
2018-07-13T23:33:28.873Z,19.10
2018-07-13T23:35:57.450Z,19.00
2018-07-13T23:38:26.329Z,19.00
2018-07-13T23:40:55.466Z,18.90
2018-07-13T23:43:24.431Z,18.90
2018-07-13T23:45:53.120Z,18.80
2018-07-13T23:48:22.735Z,18.80
2018-07-13T23:50:55.874Z,18.70
2018-07-13T23:53:24.706Z,18.60
2018-07-13T23:55:53.812Z,18.50
2018-07-13T23:58:22.717Z,18.40
